Time;durP1;ratioP1;P1;durP2;ratioP2;P2;SDS_P1;SDS_P2;PMS_P1;PMS_P2;Temp;Humidity;BMP_temperature;BMP_pressure;BME280_temperature;BME280_humidity;BME280_pressure;Samples;Min_cycle;Max_cycle;Signal;HPM_P1;HPM_P2
2022/04/23 00:00:59;;;;;;;;;15.00;14.00;;;;;16.32;34.28;99398.50;4982475;28;45915;-56
2022/04/23 00:03:25;;;;;;;;;12.75;12.75;;;;;16.29;34.23;99401.31;4982605;28;45277;-56
2022/04/23 00:05:50;;;;;;;;;11.50;9.00;;;;;16.25;34.20;99398.88;4982055;28;45338;-57
2022/04/23 00:08:15;;;;;;;;;13.25;13.25;;;;;16.25;34.28;99400.66;4982534;28;45369;-57
2022/04/23 00:10:41;;;;;;;;;10.50;10.50;;;;;16.22;34.00;99399.03;4982410;28;45365;-56
2022/04/23 00:13:06;;;;;;;;;13.00;11.50;;;;;16.18;34.15;99394.03;4982328;28;45301;-57
2022/04/23 00:15:37;;;;;;;;;15.75;12.00;;;;;16.17;34.56;99393.16;4982398;28;45302;-56
2022/04/23 00:18:09;;;;;;;;;10.00;10.00;;;;;16.13;34.25;99391.63;4982418;28;45227;-57
2022/04/23 00:20:36;;;;;;;;;11.25;9.75;;;;;16.12;34.18;99383.78;4981042;28;45458;-57
2022/04/23 00:23:03;;;;;;;;;11.00;10.25;;;;;16.08;34.42;99388.41;4981412;28;45444;-57
2022/04/23 00:25:29;;;;;;;;;11.00;9.00;;;;;16.06;34.42;99392.94;4981465;28;46203;-57
2022/04/23 00:27:54;;;;;;;;;12.25;12.25;;;;;16.04;34.41;99386.88;4982192;28;45309;-57
2022/04/23 00:30:20;;;;;;;;;16.25;13.25;;;;;16.01;34.95;99379.09;4982155;28;45250;-57
2022/04/23 00:32:46;;;;;;;;;13.25;11.25;;;;;16.00;34.84;99383.56;4981745;28;45530;-57
2022/04/23 00:35:15;;;;;;;;;14.50;11.75;;;;;15.96;35.10;99370.56;4981893;28;46197;-57
2022/04/23 00:37:41;;;;;;;;;9.75;9.75;;;;;15.95;35.04;99374.16;4981797;28;45246;-57
2022/04/23 00:40:08;;;;;;;;;12.25;12.25;;;;;15.93;35.18;99368.94;4982064;28;45218;-57
2022/04/23 00:42:57;;;;;;;;;13.50;13.25;;;;;15.89;34.96;99365.63;4981626;28;45563;-56
2022/04/23 00:45:25;;;;;;;;;14.25;11.25;;;;;15.89;34.77;99367.44;4981717;28;46228;-57
2022/04/23 00:47:51;;;;;;;;;13.50;13.50;;;;;15.85;35.23;99363.25;4981761;28;45468;-57
2022/04/23 00:50:21;;;;;;;;;15.50;15.50;;;;;15.86;35.03;99351.69;4981726;28;45306;-57
2022/04/23 00:52:48;;;;;;;;;13.50;13.00;;;;;15.84;34.79;99351.78;4981857;28;45430;-57
2022/04/23 00:55:14;;;;;;;;;12.50;10.25;;;;;15.84;34.95;99358.91;4981466;28;45420;-57
2022/04/23 00:57:40;;;;;;;;;11.75;10.75;;;;;15.82;35.09;99352.81;4981492;28;45362;-57
2022/04/23 01:00:08;;;;;;;;;12.00;10.75;;;;;15.80;35.41;99352.03;4981816;28;45282;-57
2022/04/23 01:02:34;;;;;;;;;13.00;13.00;;;;;15.77;35.63;99345.09;4981377;28;45343;-57
2022/04/23 01:04:59;;;;;;;;;12.00;12.00;;;;;15.75;35.45;99336.41;4981419;28;45385;-57
2022/04/23 01:07:25;;;;;;;;;17.25;14.00;;;;;15.73;35.60;99339.13;4981457;28;45324;-57
2022/04/23 01:09:51;;;;;;;;;14.50;12.25;;;;;15.69;35.42;99336.78;4981662;28;45337;-57
2022/04/23 01:12:17;;;;;;;;;12.25;12.25;;;;;15.70;35.68;99333.19;4981495;28;45361;-57
2022/04/23 01:14:59;;;;;;;;;13.00;13.00;;;;;15.68;35.66;99332.41;4981299;28;45246;-57
2022/04/23 01:17:25;;;;;;;;;15.25;14.50;;;;;15.65;35.41;99330.78;4981285;28;45283;-56
2022/04/23 01:19:51;;;;;;;;;16.50;13.25;;;;;15.60;35.52;99328.41;4981098;28;45326;-57
2022/04/23 01:22:16;;;;;;;;;14.00;13.25;;;;;15.62;35.72;99332.75;4981286;28;45315;-57
2022/04/23 01:24:43;;;;;;;;;11.75;11.75;;;;;15.59;35.94;99324.03;4981184;28;45440;-57
2022/04/23 01:27:10;;;;;;;;;14.25;12.50;;;;;15.54;35.54;99328.75;4981352;28;45363;-57
2022/04/23 01:29:36;;;;;;;;;12.25;12.25;;;;;15.55;35.41;99327.81;4979770;28;45265;-56
2022/04/23 01:32:05;;;;;;;;;14.25;12.75;;;;;15.54;36.00;99325.25;4980856;28;45457;-57
2022/04/23 01:34:31;;;;;;;;;14.25;12.50;;;;;15.48;36.19;99323.81;4979063;28;46273;-56
2022/04/23 01:36:56;;;;;;;;;12.75;11.25;;;;;15.48;35.67;99329.09;4981063;28;45424;-56
2022/04/23 01:39:22;;;;;;;;;13.25;13.25;;;;;15.49;36.19;99325.53;4981011;28;45267;-56
2022/04/23 01:41:47;;;;;;;;;10.75;10.75;;;;;15.45;35.88;99321.34;4981215;28;45339;-57
2022/04/23 01:44:13;;;;;;;;;15.75;13.25;;;;;15.45;36.05;99324.00;4979712;28;46928;-57
2022/04/23 01:46:38;;;;;;;;;12.75;12.75;;;;;15.42;35.73;99319.72;4981023;28;45252;-56
2022/04/23 01:49:04;;;;;;;;;15.00;14.00;;;;;15.42;36.47;99318.84;4980666;28;45239;-58
2022/04/23 01:51:29;;;;;;;;;17.50;14.50;;;;;15.37;35.94;99319.13;4979643;28;45245;-57
2022/04/23 01:53:55;;;;;;;;;15.00;14.00;;;;;15.37;36.25;99316.50;4979356;28;45283;-57
2022/04/23 01:56:20;;;;;;;;;15.25;14.25;;;;;15.36;35.91;99308.66;4981053;28;45393;-57
2022/04/23 01:58:46;;;;;;;;;13.25;12.25;;;;;15.34;36.50;99315.81;4980887;28;45351;-57
2022/04/23 02:01:11;;;;;;;;;15.75;15.25;;;;;15.32;36.32;99307.09;4980872;28;45268;-57
2022/04/23 02:03:37;;;;;;;;;10.50;9.50;;;;;15.31;36.06;99308.03;4980376;28;45445;-57
2022/04/23 02:06:02;;;;;;;;;13.75;12.25;;;;;15.28;36.17;99309.94;4979517;28;45294;-57
2022/04/23 02:08:27;;;;;;;;;17.75;16.00;;;;;15.26;36.51;99308.31;4980802;28;45239;-57
2022/04/23 02:10:53;;;;;;;;;12.75;12.75;;;;;15.25;36.28;99311.88;4980769;28;45517;-57
2022/04/23 02:13:18;;;;;;;;;9.75;9.75;;;;;15.23;36.03;99303.16;4979188;28;46303;-57
2022/04/23 02:15:44;;;;;;;;;13.50;13.00;;;;;15.20;36.04;99298.06;4980634;28;45413;-57
2022/04/23 02:18:10;;;;;;;;;19.00;15.50;;;;;15.19;36.70;99301.66;4980575;28;45374;-57
2022/04/23 02:20:36;;;;;;;;;17.25;14.25;;;;;15.18;36.68;99308.75;4980275;28;45434;-57
2022/04/23 02:23:02;;;;;;;;;16.50;16.25;;;;;15.13;36.40;99294.06;4980135;28;45456;-57
2022/04/23 02:25:27;;;;;;;;;16.00;14.75;;;;;15.10;36.95;99292.44;4980292;28;45372;-57
2022/04/23 02:27:52;;;;;;;;;12.50;11.75;;;;;15.09;36.42;99296.00;4980551;28;45461;-57
2022/04/23 02:30:20;;;;;;;;;14.50;14.50;;;;;15.06;36.85;99302.31;4980492;28;45242;-57
2022/04/23 02:32:46;;;;;;;;;13.25;12.50;;;;;15.05;36.61;99291.84;4979868;28;46250;-57
2022/04/23 02:35:14;;;;;;;;;12.25;12.25;;;;;15.01;36.41;99293.78;4980172;28;45355;-57
2022/04/23 02:37:42;;;;;;;;;15.00;13.00;;;;;14.99;37.05;99289.53;4980233;28;45430;-57
2022/04/23 02:40:08;;;;;;;;;16.25;13.25;;;;;14.97;36.63;99286.09;4980143;28;45326;-57
2022/04/23 02:42:36;;;;;;;;;17.25;14.50;;;;;14.94;37.12;99282.72;4980011;28;45421;-56
2022/04/23 02:45:02;;;;;;;;;18.00;14.75;;;;;14.93;37.13;99280.13;4980453;28;45273;-57
2022/04/23 02:47:29;;;;;;;;;15.25;14.25;;;;;14.91;36.59;99276.75;4981805;28;45204;-56
2022/04/23 02:49:55;;;;;;;;;15.75;14.00;;;;;14.88;36.98;99274.25;4983358;28;45546;-57
2022/04/23 02:52:20;;;;;;;;;16.25;15.50;;;;;14.86;37.23;99271.69;4983643;28;45541;-57
2022/04/23 02:54:46;;;;;;;;;10.75;10.75;;;;;14.84;37.13;99260.38;4983667;28;45238;-56
2022/04/23 02:57:11;;;;;;;;;13.50;12.50;;;;;14.83;36.91;99266.59;4983565;28;45310;-57
2022/04/23 02:59:37;;;;;;;;;16.75;15.50;;;;;14.80;36.92;99264.09;4983549;28;45331;-57
2022/04/23 03:02:03;;;;;;;;;14.50;14.50;;;;;14.78;37.07;99263.34;4983529;28;46057;-57
2022/04/23 03:04:29;;;;;;;;;14.00;13.00;;;;;14.74;37.00;99260.03;4983271;28;45251;-57
2022/04/23 03:06:54;;;;;;;;;17.25;14.50;;;;;14.70;37.15;99252.31;4983321;28;45262;-57
2022/04/23 03:09:20;;;;;;;;;18.75;15.00;;;;;14.73;36.81;99263.59;4983450;28;45205;-57
2022/04/23 03:11:47;;;;;;;;;32.00;30.50;;;;;14.71;36.96;99259.31;4983174;28;45319;-57
2022/04/23 03:14:12;;;;;;;;;15.25;14.75;;;;;14.63;37.08;99246.50;4983350;28;45270;-57
2022/04/23 03:16:38;;;;;;;;;16.75;15.75;;;;;14.67;37.45;99249.88;4983112;28;45319;-57
2022/04/23 03:19:03;;;;;;;;;16.25;14.00;;;;;14.65;37.51;99249.94;4983197;28;45346;-57
2022/04/23 03:21:28;;;;;;;;;16.00;16.00;;;;;14.64;37.52;99250.84;4983056;28;45397;-57
2022/04/23 03:23:54;;;;;;;;;14.75;14.00;;;;;14.62;37.37;99242.16;4980167;28;45368;-57
2022/04/23 03:26:19;;;;;;;;;15.25;14.00;;;;;14.60;37.29;99241.38;4977062;28;45327;-57
2022/04/23 03:28:44;;;;;;;;;12.50;11.75;;;;;14.56;37.72;99231.91;4983156;28;45503;-57
2022/04/23 03:31:10;;;;;;;;;15.75;15.75;;;;;14.55;37.35;99239.00;4982729;28;45703;-57
2022/04/23 03:33:35;;;;;;;;;16.25;14.75;;;;;14.55;37.37;99240.75;4965338;28;45348;-57
2022/04/23 03:36:02;;;;;;;;;12.50;11.25;;;;;14.53;37.36;99242.66;4983056;28;45302;-57
2022/04/23 03:38:27;;;;;;;;;13.00;12.50;;;;;14.50;37.79;99241.00;4981728;28;45851;-57
2022/04/23 03:40:55;;;;;;;;;16.50;15.00;;;;;14.47;37.46;99242.03;4982733;28;45418;-57
2022/04/23 03:43:25;;;;;;;;;13.50;13.00;;;;;14.43;37.76;99234.38;4982965;28;45338;-57
2022/04/23 03:45:52;;;;;;;;;12.25;11.75;;;;;14.41;37.59;99231.78;4982894;28;45346;-57
2022/04/23 03:48:17;;;;;;;;;16.75;14.75;;;;;14.37;37.49;99227.63;4982733;28;45523;-57
2022/04/23 03:50:43;;;;;;;;;14.00;13.25;;;;;14.37;37.39;99224.13;4982288;28;46301;-57
2022/04/23 03:53:12;;;;;;;;;18.25;16.25;;;;;14.37;37.67;99230.25;4981434;28;45326;-57
2022/04/23 03:55:37;;;;;;;;;15.75;15.00;;;;;14.33;37.82;99217.31;4981517;28;45302;-57
2022/04/23 03:58:02;;;;;;;;;14.75;14.75;;;;;14.33;38.00;99219.94;4982484;28;45274;-57
2022/04/23 04:00:31;;;;;;;;;15.25;15.25;;;;;14.30;37.77;99216.53;4982669;28;45353;-57
2022/04/23 04:02:56;;;;;;;;;15.50;15.25;;;;;14.28;38.06;99215.75;4982566;28;45314;-57
2022/04/23 04:05:24;;;;;;;;;11.50;11.25;;;;;14.27;38.15;99218.47;4981054;28;45347;-57
2022/04/23 04:07:51;;;;;;;;;13.00;13.00;;;;;14.25;38.33;99221.22;4982549;28;45243;-57
2022/04/23 04:10:18;;;;;;;;;16.50;14.25;;;;;14.19;38.12;99208.31;4982234;28;46382;-56
2022/04/23 04:12:44;;;;;;;;;13.75;13.75;;;;;14.18;37.79;99205.78;4982339;28;45423;-57
2022/04/23 04:15:11;;;;;;;;;13.00;12.75;;;;;14.18;38.00;99208.41;4981024;28;45910;-57
2022/04/23 04:17:38;;;;;;;;;17.25;14.50;;;;;14.17;38.44;99210.19;4982341;28;45496;-57
2022/04/23 04:20:08;;;;;;;;;17.50;14.00;;;;;14.14;38.24;99207.72;4981788;28;45374;-55
2022/04/23 04:22:35;;;;;;;;;17.25;15.75;;;;;14.11;37.99;99208.75;4982163;28;45487;-56
2022/04/23 04:25:02;;;;;;;;;15.25;15.25;;;;;14.10;38.05;99219.38;4982066;28;45673;-57
2022/04/23 04:27:27;;;;;;;;;15.50;15.25;;;;;14.08;38.03;99215.97;4982160;28;45387;-57
2022/04/23 04:29:53;;;;;;;;;17.50;15.50;;;;;14.06;38.66;99212.53;4981808;28;45326;-57
2022/04/23 04:32:19;;;;;;;;;16.25;13.00;;;;;14.05;38.41;99208.19;4980715;28;46384;-57
2022/04/23 04:34:44;;;;;;;;;17.50;13.75;;;;;14.03;38.75;99204.81;4981919;28;45354;-57
2022/04/23 04:37:11;;;;;;;;;19.00;15.50;;;;;13.96;38.38;99194.56;4982246;28;45239;-57
2022/04/23 04:39:38;;;;;;;;;14.00;14.00;;;;;13.98;38.59;99205.88;4981714;28;46066;-57
2022/04/23 04:42:05;;;;;;;;;11.75;11.50;;;;;13.98;38.67;99200.59;4982044;28;45332;-57
2022/04/23 04:44:30;;;;;;;;;18.25;16.50;;;;;13.92;38.37;99193.03;4981947;28;45292;-57
2022/04/23 04:46:56;;;;;;;;;12.75;12.75;;;;;13.97;38.67;99205.97;4981877;28;45424;-57
2022/04/23 04:49:24;;;;;;;;;15.75;15.25;;;;;13.95;38.42;99203.41;4981501;28;45952;-56
2022/04/23 04:51:51;;;;;;;;;13.50;12.00;;;;;13.94;38.70;99206.13;4981932;28;45401;-56
2022/04/23 04:54:21;;;;;;;;;19.50;16.50;;;;;13.92;38.64;99205.34;4981659;28;45310;-56
2022/04/23 04:56:51;;;;;;;;;16.75;16.75;;;;;13.91;38.54;99207.16;4981472;28;45274;-61
2022/04/23 04:59:17;;;;;;;;;13.00;12.25;;;;;13.88;38.59;99206.44;4981459;28;46370;-56
2022/04/23 05:01:42;;;;;;;;;16.50;15.50;;;;;13.89;38.52;99208.16;4981598;28;45251;-57
2022/04/23 05:04:08;;;;;;;;;19.50;15.50;;;;;13.88;38.70;99201.16;4981436;28;45160;-56
2022/04/23 05:06:33;;;;;;;;;16.25;16.00;;;;;13.86;38.69;99198.63;4980356;28;45529;-56
2022/04/23 05:08:59;;;;;;;;;19.50;17.50;;;;;13.83;39.05;99193.47;4981156;28;45296;-56
2022/04/23 05:11:24;;;;;;;;;17.50;15.00;;;;;13.83;38.75;99193.47;4981056;28;45336;-56
2022/04/23 05:13:50;;;;;;;;;19.00;16.50;;;;;13.84;38.99;99199.63;4981548;28;45345;-56
2022/04/23 05:16:16;;;;;;;;;19.00;18.25;;;;;13.82;39.04;99203.19;4981462;28;45602;-56
2022/04/23 05:18:41;;;;;;;;;17.25;16.75;;;;;13.84;38.86;99203.13;4979702;28;45838;-57
2022/04/23 05:21:07;;;;;;;;;18.75;16.50;;;;;13.81;38.95;99192.69;4981484;28;45306;-56
2022/04/23 05:23:32;;;;;;;;;18.00;16.75;;;;;13.84;38.86;99205.75;4981299;28;45334;-60
2022/04/23 05:25:58;;;;;;;;;17.25;16.25;;;;;13.84;38.95;99192.56;4981320;28;45342;-57
2022/04/23 05:28:23;;;;;;;;;15.00;13.75;;;;;13.84;39.04;99189.91;4981104;28;46258;-56
2022/04/23 05:30:49;;;;;;;;;15.50;15.00;;;;;13.87;38.92;99202.09;4980945;28;45168;-56
2022/04/23 05:33:14;;;;;;;;;15.50;15.25;;;;;13.88;39.21;99190.63;4981074;28;45286;-56
2022/04/23 05:35:40;;;;;;;;;15.50;14.50;;;;;13.89;39.16;99193.16;4981209;28;45211;-56
2022/04/23 05:38:05;;;;;;;;;12.00;11.75;;;;;13.91;39.38;99186.03;4980887;28;46192;-56
2022/04/23 05:40:31;;;;;;;;;12.75;12.75;;;;;13.90;39.26;99181.69;4981098;28;45176;-56
2022/04/23 05:43:00;;;;;;;;;16.75;16.75;;;;;13.91;39.37;99185.16;4980934;28;45243;-56
2022/04/23 05:45:26;;;;;;;;;19.25;17.00;;;;;13.87;39.40;99162.50;4981111;28;45320;-56
2022/04/23 05:47:52;;;;;;;;;18.00;16.50;;;;;13.98;39.14;99179.47;4980880;28;46496;-56
2022/04/23 05:50:17;;;;;;;;;17.00;16.00;;;;;13.99;39.50;99180.34;4980656;28;45368;-56
2022/04/23 05:52:43;;;;;;;;;17.25;15.75;;;;;14.02;39.50;99189.88;4981095;28;45329;-56
2022/04/23 05:55:09;;;;;;;;;21.50;19.75;;;;;14.03;39.46;99194.22;4980767;28;45568;-58
2022/04/23 05:57:35;;;;;;;;;19.50;18.00;;;;;14.05;39.51;99217.00;4963164;28;46088;-55
2022/04/23 06:00:01;;;;;;;;;19.25;17.50;;;;;14.06;39.38;99215.19;4980826;28;45230;-56
2022/04/23 06:02:26;;;;;;;;;22.50;19.50;;;;;14.09;39.59;99215.03;4979638;28;45332;-57
2022/04/23 06:04:52;;;;;;;;;17.50;15.25;;;;;14.07;39.63;99195.78;4980643;28;45395;-58
2022/04/23 06:07:18;;;;;;;;;17.00;17.00;;;;;14.12;39.32;99214.88;4980492;28;45353;-58
2022/04/23 06:09:44;;;;;;;;;15.50;14.75;;;;;14.14;39.50;99232.34;4979224;28;45445;-58
2022/04/23 06:12:09;;;;;;;;;18.25;17.00;;;;;14.16;39.72;99234.88;4979376;28;45435;-58
2022/04/23 06:14:35;;;;;;;;;20.00;17.50;;;;;14.22;39.36;99223.16;4979259;28;45446;-58
2022/04/23 06:17:00;;;;;;;;;19.75;17.50;;;;;14.25;39.34;99215.06;4979010;28;45810;-58
2022/04/23 06:19:26;;;;;;;;;18.25;15.00;;;;;14.18;39.30;99197.84;4980447;28;45393;-58
2022/04/23 06:21:51;;;;;;;;;19.75;19.75;;;;;14.29;39.55;99228.03;4978140;28;45347;-58
2022/04/23 06:24:17;;;;;;;;;18.75;15.00;;;;;14.34;39.37;99229.56;4974155;28;45494;-56
2022/04/23 06:26:42;;;;;;;;;19.75;16.25;;;;;14.37;39.38;99224.97;4977739;28;46596;-56
2022/04/23 06:29:07;;;;;;;;;22.25;19.25;;;;;14.41;39.65;99217.72;4980364;28;45322;-56
2022/04/23 06:31:33;;;;;;;;;17.00;17.00;;;;;14.45;39.83;99212.22;4978815;28;45319;-56
2022/04/23 06:33:58;;;;;;;;;17.75;16.00;;;;;14.41;39.24;99194.78;4978911;28;45294;-56
2022/04/23 06:36:24;;;;;;;;;17.25;16.75;;;;;14.56;39.73;99227.47;4980217;28;45418;-57
2022/04/23 06:38:49;;;;;;;;;23.00;20.75;;;;;14.61;39.67;99214.00;4980332;28;45210;-57
2022/04/23 06:41:15;;;;;;;;;19.00;16.50;;;;;14.67;39.42;99218.97;4980217;28;45279;-56
2022/04/23 06:43:40;;;;;;;;;16.00;15.75;;;;;14.72;39.63;99224.03;4980509;28;45217;-56
2022/04/23 06:46:05;;;;;;;;;19.75;19.75;;;;;14.76;39.77;99214.97;4978770;28;46363;-56
2022/04/23 06:48:31;;;;;;;;;16.25;15.25;;;;;14.82;39.55;99216.41;4959136;28;45495;-58
2022/04/23 06:50:56;;;;;;;;;20.25;20.00;;;;;14.86;39.52;99220.59;4988820;28;45329;-56
2022/04/23 06:53:21;;;;;;;;;16.75;13.25;;;;;14.90;39.89;99217.69;4970873;28;45243;-56
2022/04/23 06:55:47;;;;;;;;;15.75;15.75;;;;;14.95;39.56;99209.50;4979823;28;46303;-56
2022/04/23 06:58:12;;;;;;;;;17.25;17.25;;;;;15.01;39.94;99211.78;4980046;28;45366;-56
2022/04/23 07:00:40;;;;;;;;;18.50;17.00;;;;;15.04;39.45;99198.41;4980085;28;45339;-57
2022/04/23 07:03:05;;;;;;;;;21.25;19.75;;;;;15.11;39.85;99214.78;4980024;28;45323;-56
2022/04/23 07:05:31;;;;;;;;;20.50;17.50;;;;;15.13;39.27;99204.94;4979386;28;45377;-56
2022/04/23 07:07:59;;;;;;;;;17.50;16.25;;;;;15.21;39.55;99209.81;4980069;28;45481;-56
2022/04/23 07:10:26;;;;;;;;;17.75;17.25;;;;;15.25;39.66;99206.03;4980083;28;45498;-55
2022/04/23 07:12:53;;;;;;;;;17.25;17.25;;;;;15.30;39.76;99201.34;4979888;28;45283;-56
2022/04/23 07:15:25;;;;;;;;;19.50;17.25;;;;;15.35;39.53;99204.56;4978351;28;46385;-56
2022/04/23 07:17:51;;;;;;;;;25.50;21.25;;;;;15.37;39.37;99201.81;4979761;28;45297;-56
2022/04/23 07:20:18;;;;;;;;;14.00;13.25;;;;;15.37;39.46;99193.88;4979472;28;46448;-59
2022/04/23 07:24:03;;;;;;;;;21.00;20.00;;;;;15.47;39.63;99210.94;4979648;28;45564;-58
2022/04/23 07:25:33;;;;;;;;;24.50;21.25;;;;;15.51;39.32;99209.81;4971090;28;45465;-58
2022/04/23 07:27:59;;;;;;;;;16.00;15.00;;;;;15.55;39.40;99219.28;4978311;28;45287;-56
2022/04/23 07:30:25;;;;;;;;;17.25;15.75;;;;;15.59;39.94;99207.53;4978338;28;45361;-56
2022/04/23 07:32:54;;;;;;;;;17.25;15.50;;;;;15.64;39.83;99215.22;4978610;28;45557;-56
2022/04/23 07:38:16;;;;;;;;;18.00;16.00;;;;;15.75;39.85;99207.50;4982860;28;45433;-56
2022/04/23 07:40:42;;;;;;;;;20.00;18.25;;;;;15.79;39.56;99202.88;4982878;28;45266;-57
2022/04/23 07:43:12;;;;;;;;;23.50;20.50;;;;;15.87;39.83;99211.25;4981275;28;45646;-56
2022/04/23 07:45:39;;;;;;;;;23.00;20.50;;;;;15.92;39.93;99209.16;4982442;28;47002;-56
2022/04/23 07:48:06;;;;;;;;;23.25;21.75;;;;;15.99;39.75;99206.16;4982582;28;45457;-57
2022/04/23 07:50:32;;;;;;;;;20.25;18.25;;;;;16.06;39.31;99205.66;4981176;28;45394;-56
2022/04/23 07:52:57;;;;;;;;;18.00;17.00;;;;;16.13;39.91;99197.34;4982672;28;45369;-57
2022/04/23 07:55:23;;;;;;;;;20.00;19.00;;;;;16.19;39.49;99189.84;4982417;28;46851;-57
2022/04/23 07:57:48;;;;;;;;;21.50;18.75;;;;;16.24;39.41;99194.88;4982637;28;45365;-56
2022/04/23 08:00:14;;;;;;;;;16.50;16.25;;;;;16.33;39.80;99191.66;4982730;28;45326;-57
2022/04/23 08:02:39;;;;;;;;;15.75;15.25;;;;;16.40;39.40;99186.81;4982653;28;45456;-57
2022/04/23 08:05:05;;;;;;;;;17.75;17.50;;;;;16.41;39.83;99180.56;4980851;28;46895;-56
2022/04/23 08:07:31;;;;;;;;;15.50;15.50;;;;;16.54;39.54;99184.16;4982653;28;45296;-56
2022/04/23 08:09:56;;;;;;;;;16.50;14.00;;;;;16.61;39.56;99184.59;4982352;28;45388;-56
2022/04/23 08:12:21;;;;;;;;;15.50;15.50;;;;;16.71;39.47;99192.81;4982509;28;45433;-57
2022/04/23 08:14:47;;;;;;;;;19.75;16.75;;;;;16.79;39.14;99187.88;4982243;28;46262;-56
2022/04/23 08:17:12;;;;;;;;;15.75;14.00;;;;;16.82;39.46;99179.72;4982253;28;45361;-57
2022/04/23 08:19:38;;;;;;;;;18.75;17.25;;;;;16.93;39.15;99180.84;4982147;28;45263;-57
2022/04/23 08:22:04;;;;;;;;;16.25;16.25;;;;;16.99;39.77;99180.44;4982175;28;45468;-56
2022/04/23 08:24:31;;;;;;;;;21.25;20.00;;;;;17.05;39.24;99177.38;4981787;28;46135;-57
2022/04/23 08:26:56;;;;;;;;;18.25;18.25;;;;;17.10;39.56;99175.28;4982123;28;45313;-57
2022/04/23 08:32:05;;;;;;;;;23.00;17.75;;;;;17.19;39.17;99169.38;4981786;28;45462;-56
2022/04/23 08:34:31;;;;;;;;;15.75;14.25;;;;;17.29;39.42;99182.03;4981419;28;45493;-57
2022/04/23 08:36:57;;;;;;;;;20.25;17.25;;;;;17.35;39.41;99176.31;4982069;28;45352;-59
2022/04/23 08:39:22;;;;;;;;;18.75;18.75;;;;;17.38;39.53;99173.41;4980628;28;45380;-57
2022/04/23 08:41:48;;;;;;;;;20.50;16.50;;;;;17.48;39.12;99165.69;4981864;28;45528;-57
2022/04/23 08:44:14;;;;;;;;;17.50;16.00;;;;;17.51;39.09;99166.34;4980869;28;47005;-58
2022/04/23 08:46:40;;;;;;;;;20.00;16.00;;;;;17.61;39.56;99169.22;4980457;28;45211;-57
2022/04/23 08:49:13;;;;;;;;;23.50;22.25;;;;;17.70;39.00;99167.75;4981753;28;45282;-57
2022/04/23 08:51:40;;;;;;;;;20.75;17.25;;;;;17.78;38.98;99176.00;4981715;28;45284;-57
2022/04/23 08:54:13;;;;;;;;;22.25;19.50;;;;;17.85;39.20;99176.47;4981215;28;46218;-57
2022/04/23 08:56:43;;;;;;;;;18.00;18.00;;;;;17.90;39.47;99170.81;4981532;28;45456;-56
2022/04/23 08:59:12;;;;;;;;;23.00;20.00;;;;;17.93;39.28;99168.78;4981720;28;45420;-57
2022/04/23 09:01:38;;;;;;;;;18.75;17.00;;;;;18.11;39.13;99181.78;4981410;28;45366;-57
2022/04/23 09:04:06;;;;;;;;;16.25;14.50;;;;;18.17;39.04;99178.69;4981050;28;45231;-57
2022/04/23 09:06:42;;;;;;;;;19.75;19.25;;;;;18.25;39.11;99184.34;4981656;28;45307;-57
2022/04/23 09:09:14;;;;;;;;;15.50;15.50;;;;;18.34;38.95;99183.66;4981393;28;45234;-57
2022/04/23 09:11:46;;;;;;;;;20.00;16.00;;;;;18.37;39.38;99176.44;4981264;28;45276;-57
2022/04/23 09:14:29;;;;;;;;;19.25;19.25;;;;;18.50;38.81;99179.91;4981601;28;46377;-57
2022/04/23 09:25:31;;;;;;;;;20.00;17.50;;;;;18.85;38.78;99168.50;4972188;28;45787;-57
2022/04/23 09:28:12;;;;;;;;;15.25;12.00;;;;;18.91;38.63;99172.56;4981068;28;45338;-57
2022/04/23 09:30:37;;;;;;;;;14.50;13.25;;;;;19.04;38.90;99173.34;4981257;28;45192;-57
2022/04/23 09:33:02;;;;;;;;;19.00;17.25;;;;;19.09;38.90;99162.34;4980651;28;45196;-57
2022/04/23 09:35:28;;;;;;;;;19.00;18.00;;;;;19.24;38.32;99174.50;4981065;28;45551;-57
2022/04/23 09:38:11;;;;;;;;;16.25;16.25;;;;;19.32;38.42;99157.97;4979616;28;45290;-58
2022/04/23 09:40:37;;;;;;;;;17.00;16.00;;;;;19.44;38.54;99169.50;4979893;28;45496;-58
2022/04/23 09:43:05;;;;;;;;;17.75;16.75;;;;;19.55;38.74;99174.03;4980715;28;45460;-58
2022/04/23 09:45:32;;;;;;;;;19.00;18.00;;;;;19.64;38.18;99166.16;4980860;28;45901;-57
2022/04/23 09:48:04;;;;;;;;;18.50;16.75;;;;;19.75;38.50;99165.31;4980680;28;45313;-56
2022/04/23 09:50:36;;;;;;;;;18.00;17.00;;;;;19.76;38.25;99152.84;4980879;28;45344;-57
2022/04/23 09:53:20;;;;;;;;;15.75;15.50;;;;;19.92;38.47;99161.41;4980713;28;45334;-58
2022/04/23 09:55:49;;;;;;;;;14.50;14.50;;;;;20.06;38.65;99164.78;4980314;28;46825;-57
2022/04/23 09:58:16;;;;;;;;;16.75;16.25;;;;;20.14;38.46;99157.03;4980758;28;45405;-56
2022/04/23 10:00:47;;;;;;;;;14.75;13.75;;;;;20.26;38.00;99160.53;4980650;28;45333;-57
2022/04/23 10:03:13;;;;;;;;;17.50;16.75;;;;;20.32;38.24;99157.38;4979367;28;45539;-57
2022/04/23 10:05:46;;;;;;;;;17.00;16.25;;;;;20.41;37.98;99161.97;4980572;28;45368;-58
2022/04/23 10:08:14;;;;;;;;;14.50;14.50;;;;;20.53;37.93;99172.66;4979351;28;45408;-57
2022/04/23 10:10:44;;;;;;;;;12.75;11.50;;;;;20.60;37.88;99165.81;4980466;28;45335;-57
2022/04/23 10:13:11;;;;;;;;;15.75;15.00;;;;;20.68;38.25;99171.38;4980447;28;45537;-57
2022/04/23 10:15:39;;;;;;;;;15.75;15.25;;;;;20.72;38.24;99164.84;4979090;28;46814;-58
2022/04/23 10:18:08;;;;;;;;;15.00;13.00;;;;;20.83;37.93;99157.78;4980294;28;45404;-58
2022/04/23 10:20:34;;;;;;;;;14.75;13.25;;;;;20.92;37.82;99157.03;4980405;28;45331;-57
2022/04/23 10:23:20;;;;;;;;;13.75;13.00;;;;;21.04;38.05;99157.84;4980137;28;45603;-57
2022/04/23 10:26:21;;;;;;;;;17.25;17.00;;;;;21.15;37.91;99162.28;4955089;28;48000;-57
2022/04/23 10:28:48;;;;;;;;;14.25;12.00;;;;;21.30;37.95;99157.50;4882112;29;45523;-58
2022/04/23 10:31:16;;;;;;;;;11.50;11.50;;;;;21.40;37.35;99151.22;4961942;28;45251;-58
2022/04/23 10:33:46;;;;;;;;;16.50;16.00;;;;;21.51;37.24;99147.66;4980190;28;45283;-57
2022/04/23 10:36:13;;;;;;;;;16.75;16.75;;;;;21.67;37.91;99157.91;4980090;28;45555;-58
2022/04/23 10:38:45;;;;;;;;;13.00;13.00;;;;;21.83;37.35;99141.38;4978972;28;45266;-57
2022/04/23 10:41:13;;;;;;;;;12.25;12.25;;;;;22.03;37.91;99147.66;4979980;28;45322;-58
2022/04/23 10:44:05;;;;;;;;;14.00;13.25;;;;;22.28;37.40;99150.88;4979987;28;45336;-58
2022/04/23 10:46:36;;;;;;;;;13.50;12.75;;;;;22.51;37.32;99150.69;4975436;28;45478;-58
2022/04/23 10:49:13;;;;;;;;;10.00;8.50;;;;;22.76;37.24;99151.16;4979871;28;45477;-57
2022/04/23 10:52:05;;;;;;;;;11.50;11.25;;;;;23.05;37.42;99149.31;4980240;28;45461;-57
2022/04/23 10:54:56;;;;;;;;;9.00;9.00;;;;;23.37;37.26;99128.63;4977779;28;45456;-57
2022/04/23 10:57:23;;;;;;;;;10.00;10.00;;;;;23.76;37.32;99144.63;4975504;28;48278;-59
2022/04/23 10:59:50;;;;;;;;;10.25;9.75;;;;;24.16;37.51;99142.66;4979882;28;45389;-58
2022/04/23 11:02:21;;;;;;;;;9.75;9.50;;;;;24.66;37.14;99134.22;4980098;28;45539;-59
2022/04/23 11:13:58;;;;;;;;;9.00;7.50;;;;;27.30;36.77;99145.59;4983274;28;45406;-59
2022/04/23 11:16:31;;;;;;;;;9.50;8.75;;;;;27.94;36.20;99142.16;4983283;28;45210;-59
2022/04/23 11:18:58;;;;;;;;;8.25;8.25;;;;;28.55;35.91;99138.88;4982762;28;45229;-59
2022/04/23 11:21:32;;;;;;;;;7.75;6.75;;;;;29.15;35.46;99134.63;4982995;28;45299;-60
2022/04/23 11:24:00;;;;;;;;;7.00;7.00;;;;;29.63;35.20;99134.38;4983032;28;45540;-60
2022/04/23 11:26:44;;;;;;;;;8.00;8.00;;;;;30.10;34.44;99131.53;4981744;28;45454;-59
2022/04/23 11:29:10;;;;;;;;;7.25;6.25;;;;;30.44;34.55;99132.78;4983033;28;46355;-59
2022/04/23 11:31:35;;;;;;;;;13.00;8.25;;;;;30.72;34.07;99135.66;5000254;28;45580;-59
2022/04/23 11:34:03;;;;;;;;;7.50;6.25;;;;;30.93;33.80;99134.84;4982899;28;45456;-60
2022/04/23 11:36:30;;;;;;;;;8.25;6.50;;;;;31.09;33.21;99116.66;4981656;28;45512;-59
2022/04/23 11:38:58;;;;;;;;;5.50;5.00;;;;;31.24;32.62;99130.16;4981464;28;48127;-59
2022/04/23 11:41:34;;;;;;;;;6.50;6.50;;;;;31.34;32.55;99127.09;4982735;28;45323;-59
2022/04/23 11:45:04;;;;;;;;;5.75;5.75;;;;;31.37;31.85;99127.56;4982952;28;45334;-60